sensor_id;sensor_type;location;lat;lon;timestamp;P1;durP1;ratioP1;P2;durP2;ratioP2
18125;SDS011;53956;52.442;13.284;2023-03-01T00:01:37;20.40;;;13.93;;
18125;SDS011;53956;52.442;13.284;2023-03-01T00:04:03;23.97;;;14.00;;
18125;SDS011;53956;52.442;13.284;2023-03-01T00:06:30;26.57;;;12.80;;
18125;SDS011;53956;52.442;13.284;2023-03-01T00:08:57;20.97;;;12.80;;
18125;SDS011;53956;52.442;13.284;2023-03-01T00:11:25;20.37;;;12.23;;
18125;SDS011;53956;52.442;13.284;2023-03-01T00:13:54;21.40;;;11.63;;
18125;SDS011;53956;52.442;13.284;2023-03-01T00:16:23;20.40;;;12.80;;
18125;SDS011;53956;52.442;13.284;2023-03-01T00:18:51;18.83;;;11.40;;
18125;SDS011;53956;52.442;13.284;2023-03-01T00:21:18;18.33;;;11.03;;
18125;SDS011;53956;52.442;13.284;2023-03-01T00:23:46;18.47;;;11.50;;
18125;SDS011;53956;52.442;13.284;2023-03-01T00:26:14;20.40;;;12.00;;
18125;SDS011;53956;52.442;13.284;2023-03-01T00:28:44;19.87;;;11.27;;
18125;SDS011;53956;52.442;13.284;2023-03-01T00:31:12;20.23;;;11.60;;
18125;SDS011;53956;52.442;13.284;2023-03-01T00:33:40;17.37;;;12.00;;
18125;SDS011;53956;52.442;13.284;2023-03-01T00:36:07;20.23;;;11.70;;
18125;SDS011;53956;52.442;13.284;2023-03-01T00:38:35;18.60;;;11.37;;
18125;SDS011;53956;52.442;13.284;2023-03-01T00:41:03;17.27;;;11.80;;
18125;SDS011;53956;52.442;13.284;2023-03-01T00:43:30;16.77;;;11.70;;
18125;SDS011;53956;52.442;13.284;2023-03-01T00:46:03;18.03;;;11.57;;
18125;SDS011;53956;52.442;13.284;2023-03-01T00:48:31;18.80;;;11.80;;
18125;SDS011;53956;52.442;13.284;2023-03-01T00:51:03;19.40;;;11.30;;
18125;SDS011;53956;52.442;13.284;2023-03-01T00:53:31;17.63;;;11.70;;
18125;SDS011;53956;52.442;13.284;2023-03-01T00:55:58;20.07;;;11.93;;
18125;SDS011;53956;52.442;13.284;2023-03-01T00:58:24;20.13;;;12.17;;
18125;SDS011;53956;52.442;13.284;2023-03-01T01:00:51;20.33;;;12.97;;
18125;SDS011;53956;52.442;13.284;2023-03-01T01:03:19;18.83;;;12.10;;
18125;SDS011;53956;52.442;13.284;2023-03-01T01:05:46;21.80;;;11.67;;
18125;SDS011;53956;52.442;13.284;2023-03-01T01:08:13;18.90;;;12.67;;
18125;SDS011;53956;52.442;13.284;2023-03-01T01:10:40;20.13;;;13.00;;
18125;SDS011;53956;52.442;13.284;2023-03-01T01:13:08;20.60;;;13.70;;
18125;SDS011;53956;52.442;13.284;2023-03-01T01:15:35;21.20;;;13.30;;
18125;SDS011;53956;52.442;13.284;2023-03-01T01:18:02;21.17;;;13.03;;
18125;SDS011;53956;52.442;13.284;2023-03-01T01:20:30;28.13;;;15.07;;
18125;SDS011;53956;52.442;13.284;2023-03-01T01:22:57;22.83;;;13.30;;
18125;SDS011;53956;52.442;13.284;2023-03-01T01:25:24;20.53;;;13.20;;
18125;SDS011;53956;52.442;13.284;2023-03-01T01:27:50;21.03;;;14.37;;
18125;SDS011;53956;52.442;13.284;2023-03-01T01:30:17;22.90;;;13.50;;
18125;SDS011;53956;52.442;13.284;2023-03-01T01:32:44;22.67;;;14.40;;
18125;SDS011;53956;52.442;13.284;2023-03-01T01:35:11;23.50;;;13.60;;
18125;SDS011;53956;52.442;13.284;2023-03-01T01:37:39;20.57;;;13.47;;
18125;SDS011;53956;52.442;13.284;2023-03-01T01:40:06;24.13;;;14.20;;
18125;SDS011;53956;52.442;13.284;2023-03-01T01:42:35;21.83;;;14.53;;
18125;SDS011;53956;52.442;13.284;2023-03-01T01:47:53;23.37;;;14.67;;
18125;SDS011;53956;52.442;13.284;2023-03-01T01:50:23;25.03;;;14.87;;
18125;SDS011;53956;52.442;13.284;2023-03-01T01:52:51;23.33;;;14.87;;
18125;SDS011;53956;52.442;13.284;2023-03-01T01:55:20;25.27;;;15.53;;
18125;SDS011;53956;52.442;13.284;2023-03-01T01:57:50;23.63;;;14.97;;
18125;SDS011;53956;52.442;13.284;2023-03-01T02:00:20;23.33;;;15.60;;
18125;SDS011;53956;52.442;13.284;2023-03-01T02:02:56;24.90;;;15.17;;
18125;SDS011;53956;52.442;13.284;2023-03-01T02:05:26;26.73;;;15.40;;
18125;SDS011;53956;52.442;13.284;2023-03-01T02:08:03;22.60;;;14.90;;
18125;SDS011;53956;52.442;13.284;2023-03-01T02:10:31;22.63;;;14.93;;
18125;SDS011;53956;52.442;13.284;2023-03-01T02:13:00;24.90;;;16.00;;
18125;SDS011;53956;52.442;13.284;2023-03-01T02:15:31;24.37;;;15.63;;
18125;SDS011;53956;52.442;13.284;2023-03-01T02:17:59;25.30;;;16.20;;
18125;SDS011;53956;52.442;13.284;2023-03-01T02:20:29;24.60;;;16.07;;
18125;SDS011;53956;52.442;13.284;2023-03-01T02:23:02;23.77;;;15.30;;
18125;SDS011;53956;52.442;13.284;2023-03-01T02:25:33;26.47;;;16.40;;
18125;SDS011;53956;52.442;13.284;2023-03-01T02:28:05;27.17;;;16.27;;
18125;SDS011;53956;52.442;13.284;2023-03-01T02:30:39;25.17;;;15.70;;
18125;SDS011;53956;52.442;13.284;2023-03-01T02:33:27;27.13;;;16.27;;
18125;SDS011;53956;52.442;13.284;2023-03-01T02:35:57;24.80;;;15.33;;
18125;SDS011;53956;52.442;13.284;2023-03-01T02:38:26;23.33;;;15.50;;
18125;SDS011;53956;52.442;13.284;2023-03-01T02:40:53;23.93;;;15.00;;
18125;SDS011;53956;52.442;13.284;2023-03-01T02:43:22;21.60;;;14.37;;
18125;SDS011;53956;52.442;13.284;2023-03-01T02:45:57;21.97;;;14.53;;
18125;SDS011;53956;52.442;13.284;2023-03-01T02:48:24;23.73;;;14.50;;
18125;SDS011;53956;52.442;13.284;2023-03-01T02:50:55;21.60;;;14.53;;
18125;SDS011;53956;52.442;13.284;2023-03-01T02:53:33;24.23;;;13.93;;
18125;SDS011;53956;52.442;13.284;2023-03-01T02:56:05;21.47;;;14.30;;
18125;SDS011;53956;52.442;13.284;2023-03-01T02:58:38;25.77;;;14.73;;
18125;SDS011;53956;52.442;13.284;2023-03-01T03:01:13;21.80;;;13.73;;
18125;SDS011;53956;52.442;13.284;2023-03-01T03:03:41;23.17;;;14.80;;
18125;SDS011;53956;52.442;13.284;2023-03-01T03:06:08;21.90;;;15.40;;
18125;SDS011;53956;52.442;13.284;2023-03-01T03:08:35;23.90;;;15.50;;
18125;SDS011;53956;52.442;13.284;2023-03-01T03:11:02;24.17;;;15.27;;
18125;SDS011;53956;52.442;13.284;2023-03-01T03:13:30;23.93;;;15.23;;
18125;SDS011;53956;52.442;13.284;2023-03-01T03:15:57;25.13;;;15.47;;
18125;SDS011;53956;52.442;13.284;2023-03-01T03:18:25;23.87;;;15.43;;
18125;SDS011;53956;52.442;13.284;2023-03-01T03:20:52;24.30;;;14.87;;
18125;SDS011;53956;52.442;13.284;2023-03-01T03:23:20;23.43;;;14.57;;
18125;SDS011;53956;52.442;13.284;2023-03-01T03:25:47;21.73;;;14.17;;
18125;SDS011;53956;52.442;13.284;2023-03-01T03:28:15;23.70;;;14.87;;
18125;SDS011;53956;52.442;13.284;2023-03-01T03:30:44;24.57;;;15.13;;
18125;SDS011;53956;52.442;13.284;2023-03-01T03:33:11;24.60;;;15.53;;
18125;SDS011;53956;52.442;13.284;2023-03-01T03:35:41;23.80;;;16.27;;
18125;SDS011;53956;52.442;13.284;2023-03-01T03:38:09;23.93;;;15.53;;
18125;SDS011;53956;52.442;13.284;2023-03-01T03:40:42;29.00;;;15.33;;
18125;SDS011;53956;52.442;13.284;2023-03-01T03:43:11;22.97;;;14.83;;
18125;SDS011;53956;52.442;13.284;2023-03-01T03:45:39;24.53;;;15.13;;
18125;SDS011;53956;52.442;13.284;2023-03-01T03:48:06;21.23;;;14.93;;
18125;SDS011;53956;52.442;13.284;2023-03-01T03:50:35;22.20;;;15.00;;
18125;SDS011;53956;52.442;13.284;2023-03-01T03:53:04;22.73;;;14.80;;
18125;SDS011;53956;52.442;13.284;2023-03-01T03:55:32;23.93;;;14.90;;
18125;SDS011;53956;52.442;13.284;2023-03-01T03:57:59;21.93;;;14.83;;
18125;SDS011;53956;52.442;13.284;2023-03-01T04:00:32;23.57;;;15.47;;
18125;SDS011;53956;52.442;13.284;2023-03-01T04:02:59;26.20;;;15.07;;
18125;SDS011;53956;52.442;13.284;2023-03-01T04:05:26;22.10;;;14.73;;
18125;SDS011;53956;52.442;13.284;2023-03-01T04:07:53;22.50;;;15.20;;
18125;SDS011;53956;52.442;13.284;2023-03-01T04:10:28;24.53;;;15.40;;
18125;SDS011;53956;52.442;13.284;2023-03-01T04:12:56;22.67;;;15.07;;
18125;SDS011;53956;52.442;13.284;2023-03-01T04:15:24;24.17;;;15.97;;
18125;SDS011;53956;52.442;13.284;2023-03-01T04:17:52;24.13;;;16.10;;
18125;SDS011;53956;52.442;13.284;2023-03-01T04:20:21;23.23;;;15.73;;
18125;SDS011;53956;52.442;13.284;2023-03-01T04:22:50;23.90;;;15.13;;
18125;SDS011;53956;52.442;13.284;2023-03-01T04:25:17;24.33;;;14.33;;
18125;SDS011;53956;52.442;13.284;2023-03-01T04:27:45;25.23;;;14.83;;
18125;SDS011;53956;52.442;13.284;2023-03-01T04:30:12;21.53;;;14.37;;
18125;SDS011;53956;52.442;13.284;2023-03-01T04:32:39;22.67;;;14.90;;
18125;SDS011;53956;52.442;13.284;2023-03-01T04:35:06;22.03;;;15.07;;
18125;SDS011;53956;52.442;13.284;2023-03-01T04:37:33;25.80;;;15.77;;
18125;SDS011;53956;52.442;13.284;2023-03-01T04:40:01;22.33;;;15.93;;
18125;SDS011;53956;52.442;13.284;2023-03-01T04:42:37;29.53;;;16.33;;
18125;SDS011;53956;52.442;13.284;2023-03-01T04:45:06;25.13;;;16.40;;
18125;SDS011;53956;52.442;13.284;2023-03-01T04:47:38;23.73;;;15.57;;
18125;SDS011;53956;52.442;13.284;2023-03-01T04:50:05;24.27;;;16.23;;
18125;SDS011;53956;52.442;13.284;2023-03-01T04:52:33;25.93;;;16.23;;
18125;SDS011;53956;52.442;13.284;2023-03-01T04:55:00;25.40;;;15.87;;
18125;SDS011;53956;52.442;13.284;2023-03-01T04:57:28;22.77;;;15.57;;
18125;SDS011;53956;52.442;13.284;2023-03-01T04:59:55;22.37;;;15.57;;
18125;SDS011;53956;52.442;13.284;2023-03-01T05:02:23;22.27;;;15.80;;
18125;SDS011;53956;52.442;13.284;2023-03-01T05:04:50;22.07;;;15.63;;
18125;SDS011;53956;52.442;13.284;2023-03-01T05:07:16;25.37;;;15.77;;
18125;SDS011;53956;52.442;13.284;2023-03-01T05:09:44;24.13;;;15.80;;
18125;SDS011;53956;52.442;13.284;2023-03-01T05:12:11;25.07;;;15.47;;
18125;SDS011;53956;52.442;13.284;2023-03-01T05:14:38;25.13;;;16.10;;
18125;SDS011;53956;52.442;13.284;2023-03-01T05:17:05;22.20;;;15.60;;
18125;SDS011;53956;52.442;13.284;2023-03-01T05:19:33;25.73;;;16.20;;
18125;SDS011;53956;52.442;13.284;2023-03-01T05:22:00;23.13;;;15.70;;
18125;SDS011;53956;52.442;13.284;2023-03-01T05:24:31;22.43;;;15.53;;
18125;SDS011;53956;52.442;13.284;2023-03-01T05:26:58;23.47;;;15.83;;
18125;SDS011;53956;52.442;13.284;2023-03-01T05:29:26;23.27;;;15.80;;
18125;SDS011;53956;52.442;13.284;2023-03-01T05:31:54;21.80;;;15.73;;
18125;SDS011;53956;52.442;13.284;2023-03-01T05:34:23;25.43;;;16.37;;
18125;SDS011;53956;52.442;13.284;2023-03-01T05:36:51;22.67;;;16.13;;
18125;SDS011;53956;52.442;13.284;2023-03-01T05:39:19;23.50;;;16.00;;
18125;SDS011;53956;52.442;13.284;2023-03-01T05:41:47;27.23;;;16.77;;
18125;SDS011;53956;52.442;13.284;2023-03-01T05:44:14;26.30;;;17.10;;
18125;SDS011;53956;52.442;13.284;2023-03-01T05:46:41;24.83;;;16.83;;
18125;SDS011;53956;52.442;13.284;2023-03-01T05:49:09;24.17;;;16.13;;
18125;SDS011;53956;52.442;13.284;2023-03-01T05:51:38;22.07;;;16.20;;
18125;SDS011;53956;52.442;13.284;2023-03-01T05:54:06;26.10;;;16.83;;
18125;SDS011;53956;52.442;13.284;2023-03-01T05:56:33;22.87;;;15.60;;
18125;SDS011;53956;52.442;13.284;2023-03-01T05:59:00;26.27;;;16.60;;
18125;SDS011;53956;52.442;13.284;2023-03-01T06:01:27;25.10;;;17.27;;
18125;SDS011;53956;52.442;13.284;2023-03-01T06:03:54;25.10;;;17.17;;
18125;SDS011;53956;52.442;13.284;2023-03-01T06:06:21;23.03;;;17.07;;
18125;SDS011;53956;52.442;13.284;2023-03-01T06:08:49;27.00;;;16.63;;
18125;SDS011;53956;52.442;13.284;2023-03-01T06:11:17;28.67;;;17.77;;
18125;SDS011;53956;52.442;13.284;2023-03-01T06:13:44;40.97;;;22.90;;
18125;SDS011;53956;52.442;13.284;2023-03-01T06:16:11;39.20;;;21.37;;
18125;SDS011;53956;52.442;13.284;2023-03-01T06:18:39;38.17;;;20.87;;
18125;SDS011;53956;52.442;13.284;2023-03-01T06:21:06;34.60;;;19.27;;
18125;SDS011;53956;52.442;13.284;2023-03-01T06:23:33;30.83;;;19.13;;
18125;SDS011;53956;52.442;13.284;2023-03-01T06:26:04;33.40;;;19.10;;
18125;SDS011;53956;52.442;13.284;2023-03-01T06:28:33;31.40;;;19.60;;
18125;SDS011;53956;52.442;13.284;2023-03-01T06:31:00;33.60;;;19.13;;
18125;SDS011;53956;52.442;13.284;2023-03-01T06:33:27;30.40;;;18.93;;
18125;SDS011;53956;52.442;13.284;2023-03-01T06:35:54;31.00;;;18.60;;
18125;SDS011;53956;52.442;13.284;2023-03-01T06:38:20;40.23;;;20.47;;
18125;SDS011;53956;52.442;13.284;2023-03-01T06:40:51;32.27;;;18.60;;
18125;SDS011;53956;52.442;13.284;2023-03-01T06:43:18;27.10;;;16.97;;
18125;SDS011;53956;52.442;13.284;2023-03-01T06:45:46;26.17;;;16.20;;
18125;SDS011;53956;52.442;13.284;2023-03-01T06:48:12;26.10;;;16.90;;
18125;SDS011;53956;52.442;13.284;2023-03-01T06:50:39;23.17;;;16.77;;
18125;SDS011;53956;52.442;13.284;2023-03-01T06:53:06;26.37;;;16.53;;
18125;SDS011;53956;52.442;13.284;2023-03-01T06:55:32;22.90;;;15.90;;
18125;SDS011;53956;52.442;13.284;2023-03-01T06:58:00;24.37;;;16.40;;
18125;SDS011;53956;52.442;13.284;2023-03-01T07:00:27;26.53;;;16.27;;
18125;SDS011;53956;52.442;13.284;2023-03-01T07:02:56;23.87;;;15.73;;
18125;SDS011;53956;52.442;13.284;2023-03-01T07:05:24;28.40;;;15.43;;
18125;SDS011;53956;52.442;13.284;2023-03-01T07:07:51;29.13;;;15.03;;
18125;SDS011;53956;52.442;13.284;2023-03-01T07:10:20;25.73;;;16.10;;
18125;SDS011;53956;52.442;13.284;2023-03-01T07:12:46;21.93;;;15.47;;
18125;SDS011;53956;52.442;13.284;2023-03-01T07:15:13;24.40;;;15.17;;
18125;SDS011;53956;52.442;13.284;2023-03-01T07:17:40;29.90;;;16.53;;
18125;SDS011;53956;52.442;13.284;2023-03-01T07:20:09;28.00;;;15.80;;
18125;SDS011;53956;52.442;13.284;2023-03-01T07:22:36;32.67;;;16.30;;
18125;SDS011;53956;52.442;13.284;2023-03-01T07:25:06;35.42;;;16.55;;
18125;SDS011;53956;52.442;13.284;2023-03-01T07:27:33;35.70;;;15.35;;
18125;SDS011;53956;52.442;13.284;2023-03-01T07:29:59;30.25;;;15.57;;
18125;SDS011;53956;52.442;13.284;2023-03-01T07:32:26;29.17;;;15.80;;
18125;SDS011;53956;52.442;13.284;2023-03-01T07:34:53;26.60;;;15.70;;
18125;SDS011;53956;52.442;13.284;2023-03-01T07:37:21;30.33;;;15.75;;
18125;SDS011;53956;52.442;13.284;2023-03-01T07:39:47;32.03;;;15.85;;
18125;SDS011;53956;52.442;13.284;2023-03-01T07:42:14;26.75;;;15.80;;
18125;SDS011;53956;52.442;13.284;2023-03-01T07:44:41;26.08;;;14.85;;
18125;SDS011;53956;52.442;13.284;2023-03-01T07:47:07;24.65;;;15.38;;
18125;SDS011;53956;52.442;13.284;2023-03-01T07:49:34;22.90;;;15.55;;
18125;SDS011;53956;52.442;13.284;2023-03-01T07:52:01;22.63;;;14.88;;
18125;SDS011;53956;52.442;13.284;2023-03-01T07:54:29;23.23;;;14.18;;
18125;SDS011;53956;52.442;13.284;2023-03-01T07:56:56;22.92;;;14.32;;
18125;SDS011;53956;52.442;13.284;2023-03-01T07:59:23;21.05;;;13.82;;
18125;SDS011;53956;52.442;13.284;2023-03-01T08:01:53;19.52;;;13.60;;
18125;SDS011;53956;52.442;13.284;2023-03-01T08:04:20;18.45;;;12.57;;
18125;SDS011;53956;52.442;13.284;2023-03-01T08:06:48;19.75;;;12.75;;
18125;SDS011;53956;52.442;13.284;2023-03-01T08:09:14;15.90;;;12.15;;
18125;SDS011;53956;52.442;13.284;2023-03-01T08:11:42;15.80;;;11.77;;
18125;SDS011;53956;52.442;13.284;2023-03-01T08:14:09;16.38;;;11.30;;
18125;SDS011;53956;52.442;13.284;2023-03-01T08:16:36;14.95;;;11.27;;
18125;SDS011;53956;52.442;13.284;2023-03-01T08:19:03;13.95;;;10.50;;
18125;SDS011;53956;52.442;13.284;2023-03-01T08:21:30;14.70;;;10.63;;
18125;SDS011;53956;52.442;13.284;2023-03-01T08:23:59;15.38;;;10.45;;
18125;SDS011;53956;52.442;13.284;2023-03-01T08:26:26;13.23;;;10.05;;
18125;SDS011;53956;52.442;13.284;2023-03-01T08:28:54;14.98;;;10.27;;
18125;SDS011;53956;52.442;13.284;2023-03-01T08:31:22;13.50;;;9.95;;
18125;SDS011;53956;52.442;13.284;2023-03-01T08:33:51;13.05;;;9.60;;
18125;SDS011;53956;52.442;13.284;2023-03-01T08:36:21;13.90;;;9.65;;
18125;SDS011;53956;52.442;13.284;2023-03-01T08:38:48;14.40;;;10.23;;
18125;SDS011;53956;52.442;13.284;2023-03-01T08:41:15;12.20;;;9.60;;
18125;SDS011;53956;52.442;13.284;2023-03-01T08:43:42;12.35;;;9.52;;
18125;SDS011;53956;52.442;13.284;2023-03-01T08:46:10;14.40;;;9.52;;
18125;SDS011;53956;52.442;13.284;2023-03-01T08:48:37;12.30;;;9.20;;
18125;SDS011;53956;52.442;13.284;2023-03-01T08:51:07;12.48;;;8.70;;
18125;SDS011;53956;52.442;13.284;2023-03-01T08:53:35;16.25;;;9.00;;
18125;SDS011;53956;52.442;13.284;2023-03-01T08:56:02;11.38;;;8.02;;
18125;SDS011;53956;52.442;13.284;2023-03-01T08:58:29;9.93;;;7.68;;
18125;SDS011;53956;52.442;13.284;2023-03-01T09:00:56;12.55;;;8.15;;
18125;SDS011;53956;52.442;13.284;2023-03-01T09:03:24;9.85;;;7.20;;
18125;SDS011;53956;52.442;13.284;2023-03-01T09:05:52;9.90;;;6.75;;
18125;SDS011;53956;52.442;13.284;2023-03-01T09:08:19;9.50;;;6.65;;
18125;SDS011;53956;52.442;13.284;2023-03-01T09:10:46;9.95;;;6.88;;
18125;SDS011;53956;52.442;13.284;2023-03-01T09:13:12;11.77;;;6.90;;
18125;SDS011;53956;52.442;13.284;2023-03-01T09:15:39;9.73;;;7.30;;
18125;SDS011;53956;52.442;13.284;2023-03-01T09:18:06;10.45;;;7.57;;
18125;SDS011;53956;52.442;13.284;2023-03-01T09:20:33;11.75;;;7.45;;
18125;SDS011;53956;52.442;13.284;2023-03-01T09:23:00;10.73;;;7.72;;
18125;SDS011;53956;52.442;13.284;2023-03-01T09:25:27;10.50;;;7.60;;
18125;SDS011;53956;52.442;13.284;2023-03-01T09:27:54;11.23;;;7.00;;
18125;SDS011;53956;52.442;13.284;2023-03-01T09:30:21;12.60;;;7.53;;
18125;SDS011;53956;52.442;13.284;2023-03-01T09:32:49;11.90;;;6.50;;
18125;SDS011;53956;52.442;13.284;2023-03-01T09:35:15;11.30;;;6.47;;
18125;SDS011;53956;52.442;13.284;2023-03-01T09:37:46;9.43;;;6.23;;
18125;SDS011;53956;52.442;13.284;2023-03-01T09:40:15;9.53;;;6.63;;
18125;SDS011;53956;52.442;13.284;2023-03-01T09:42:49;9.43;;;6.70;;
18125;SDS011;53956;52.442;13.284;2023-03-01T09:45:28;9.93;;;6.67;;
18125;SDS011;53956;52.442;13.284;2023-03-01T09:48:00;8.33;;;6.70;;
18125;SDS011;53956;52.442;13.284;2023-03-01T09:50:28;12.77;;;7.10;;
18125;SDS011;53956;52.442;13.284;2023-03-01T09:53:02;11.67;;;7.67;;
18125;SDS011;53956;52.442;13.284;2023-03-01T09:55:34;11.00;;;6.67;;
18125;SDS011;53956;52.442;13.284;2023-03-01T09:58:25;11.17;;;6.93;;
18125;SDS011;53956;52.442;13.284;2023-03-01T10:01:02;12.20;;;7.40;;
18125;SDS011;53956;52.442;13.284;2023-03-01T10:03:39;13.23;;;7.43;;
18125;SDS011;53956;52.442;13.284;2023-03-01T10:06:11;11.53;;;7.17;;
18125;SDS011;53956;52.442;13.284;2023-03-01T10:08:43;13.93;;;7.47;;
18125;SDS011;53956;52.442;13.284;2023-03-01T10:11:20;11.47;;;7.23;;
18125;SDS011;53956;52.442;13.284;2023-03-01T10:13:50;11.37;;;7.23;;
18125;SDS011;53956;52.442;13.284;2023-03-01T10:16:23;12.07;;;8.20;;
18125;SDS011;53956;52.442;13.284;2023-03-01T10:19:00;10.43;;;6.67;;
18125;SDS011;53956;52.442;13.284;2023-03-01T10:21:29;17.00;;;7.33;;
18125;SDS011;53956;52.442;13.284;2023-03-01T10:24:01;10.07;;;6.43;;
18125;SDS011;53956;52.442;13.284;2023-03-01T10:26:39;13.80;;;7.23;;
18125;SDS011;53956;52.442;13.284;2023-03-01T10:29:17;13.70;;;7.40;;
18125;SDS011;53956;52.442;13.284;2023-03-01T10:31:46;14.63;;;7.07;;
18125;SDS011;53956;52.442;13.284;2023-03-01T10:34:15;10.87;;;6.30;;
18125;SDS011;53956;52.442;13.284;2023-03-01T10:36:43;14.33;;;6.83;;
18125;SDS011;53956;52.442;13.284;2023-03-01T10:39:15;11.60;;;6.93;;
18125;SDS011;53956;52.442;13.284;2023-03-01T10:42:00;10.60;;;6.33;;
18125;SDS011;53956;52.442;13.284;2023-03-01T10:44:35;11.37;;;6.60;;
18125;SDS011;53956;52.442;13.284;2023-03-01T10:47:03;10.10;;;6.70;;
18125;SDS011;53956;52.442;13.284;2023-03-01T10:49:30;11.70;;;7.07;;
18125;SDS011;53956;52.442;13.284;2023-03-01T10:51:57;10.23;;;6.77;;
18125;SDS011;53956;52.442;13.284;2023-03-01T10:54:44;12.83;;;6.87;;
18125;SDS011;53956;52.442;13.284;2023-03-01T10:57:24;10.77;;;6.40;;
18125;SDS011;53956;52.442;13.284;2023-03-01T11:00:00;11.30;;;6.50;;
18125;SDS011;53956;52.442;13.284;2023-03-01T11:02:41;13.60;;;6.97;;
18125;SDS011;53956;52.442;13.284;2023-03-01T11:05:13;12.77;;;7.30;;
18125;SDS011;53956;52.442;13.284;2023-03-01T11:07:48;10.63;;;7.07;;
18125;SDS011;53956;52.442;13.284;2023-03-01T11:10:18;12.97;;;6.73;;
18125;SDS011;53956;52.442;13.284;2023-03-01T11:12:47;13.20;;;6.77;;
18125;SDS011;53956;52.442;13.284;2023-03-01T11:15:20;9.20;;;6.43;;
18125;SDS011;53956;52.442;13.284;2023-03-01T11:17:52;13.67;;;6.93;;
18125;SDS011;53956;52.442;13.284;2023-03-01T11:20:24;10.60;;;6.90;;
18125;SDS011;53956;52.442;13.284;2023-03-01T11:22:53;13.87;;;6.80;;
18125;SDS011;53956;52.442;13.284;2023-03-01T11:25:24;9.03;;;6.77;;
18125;SDS011;53956;52.442;13.284;2023-03-01T11:27:53;9.17;;;6.03;;
18125;SDS011;53956;52.442;13.284;2023-03-01T11:30:22;9.43;;;6.07;;
18125;SDS011;53956;52.442;13.284;2023-03-01T11:32:57;8.80;;;6.10;;
18125;SDS011;53956;52.442;13.284;2023-03-01T11:35:31;15.13;;;6.60;;
18125;SDS011;53956;52.442;13.284;2023-03-01T11:38:09;14.67;;;6.77;;
18125;SDS011;53956;52.442;13.284;2023-03-01T11:40:47;7.83;;;6.23;;
18125;SDS011;53956;52.442;13.284;2023-03-01T11:43:20;10.57;;;6.77;;
18125;SDS011;53956;52.442;13.284;2023-03-01T11:45:57;12.40;;;6.83;;
18125;SDS011;53956;52.442;13.284;2023-03-01T11:48:49;14.17;;;7.07;;
18125;SDS011;53956;52.442;13.284;2023-03-01T11:51:24;11.17;;;6.53;;
18125;SDS011;53956;52.442;13.284;2023-03-01T11:54:05;12.03;;;6.67;;
18125;SDS011;53956;52.442;13.284;2023-03-01T11:56:41;12.63;;;6.90;;
18125;SDS011;53956;52.442;13.284;2023-03-01T11:59:17;14.30;;;7.20;;
18125;SDS011;53956;52.442;13.284;2023-03-01T12:01:59;12.60;;;7.60;;
18125;SDS011;53956;52.442;13.284;2023-03-01T12:04:59;11.60;;;7.40;;
18125;SDS011;53956;52.442;13.284;2023-03-01T12:07:42;12.30;;;6.90;;
18125;SDS011;53956;52.442;13.284;2023-03-01T12:10:22;18.27;;;8.10;;
18125;SDS011;53956;52.442;13.284;2023-03-01T12:12:56;13.83;;;7.47;;
18125;SDS011;53956;52.442;13.284;2023-03-01T12:15:40;14.77;;;7.97;;
18125;SDS011;53956;52.442;13.284;2023-03-01T12:21:14;13.13;;;8.20;;
18125;SDS011;53956;52.442;13.284;2023-03-01T12:24:00;13.00;;;8.00;;
18125;SDS011;53956;52.442;13.284;2023-03-01T12:26:42;10.97;;;8.00;;
18125;SDS011;53956;52.442;13.284;2023-03-01T12:29:21;12.83;;;8.83;;
18125;SDS011;53956;52.442;13.284;2023-03-01T12:31:59;13.53;;;8.43;;
18125;SDS011;53956;52.442;13.284;2023-03-01T12:34:49;11.80;;;7.90;;
18125;SDS011;53956;52.442;13.284;2023-03-01T12:37:54;13.47;;;7.50;;
18125;SDS011;53956;52.442;13.284;2023-03-01T12:40:31;12.70;;;7.63;;
18125;SDS011;53956;52.442;13.284;2023-03-01T12:43:20;12.60;;;7.27;;
18125;SDS011;53956;52.442;13.284;2023-03-01T12:46:01;15.63;;;7.50;;
18125;SDS011;53956;52.442;13.284;2023-03-01T12:48:39;10.97;;;7.20;;
18125;SDS011;53956;52.442;13.284;2023-03-01T12:51:14;11.23;;;6.50;;
18125;SDS011;53956;52.442;13.284;2023-03-01T12:53:43;10.77;;;6.30;;
18125;SDS011;53956;52.442;13.284;2023-03-01T12:56:14;12.20;;;6.77;;
18125;SDS011;53956;52.442;13.284;2023-03-01T12:58:46;10.10;;;6.50;;
18125;SDS011;53956;52.442;13.284;2023-03-01T13:01:29;9.23;;;5.97;;
18125;SDS011;53956;52.442;13.284;2023-03-01T13:04:13;9.63;;;5.67;;
18125;SDS011;53956;52.442;13.284;2023-03-01T13:06:44;9.20;;;5.90;;
18125;SDS011;53956;52.442;13.284;2023-03-01T13:09:23;11.83;;;6.70;;
18125;SDS011;53956;52.442;13.284;2023-03-01T13:11:56;12.47;;;6.60;;
18125;SDS011;53956;52.442;13.284;2023-03-01T13:14:36;12.40;;;6.10;;
18125;SDS011;53956;52.442;13.284;2023-03-01T13:17:20;9.87;;;5.57;;
18125;SDS011;53956;52.442;13.284;2023-03-01T13:19:57;11.93;;;5.10;;
18125;SDS011;53956;52.442;13.284;2023-03-01T13:22:25;10.33;;;5.30;;
18125;SDS011;53956;52.442;13.284;2023-03-01T13:25:00;11.70;;;4.50;;
18125;SDS011;53956;52.442;13.284;2023-03-01T13:27:29;7.53;;;4.50;;
18125;SDS011;53956;52.442;13.284;2023-03-01T13:29:57;10.03;;;4.73;;
18125;SDS011;53956;52.442;13.284;2023-03-01T13:32:30;11.20;;;5.47;;
18125;SDS011;53956;52.442;13.284;2023-03-01T13:34:58;7.37;;;5.07;;
18125;SDS011;53956;52.442;13.284;2023-03-01T13:37:30;13.27;;;6.00;;
18125;SDS011;53956;52.442;13.284;2023-03-01T13:43:27;7.53;;;4.67;;
18125;SDS011;53956;52.442;13.284;2023-03-01T13:45:59;9.93;;;5.57;;
18125;SDS011;53956;52.442;13.284;2023-03-01T13:48:29;8.17;;;5.20;;
18125;SDS011;53956;52.442;13.284;2023-03-01T13:50:58;10.77;;;5.10;;
18125;SDS011;53956;52.442;13.284;2023-03-01T13:53:27;10.90;;;5.30;;
18125;SDS011;53956;52.442;13.284;2023-03-01T13:55:58;6.97;;;5.00;;
18125;SDS011;53956;52.442;13.284;2023-03-01T13:58:28;9.53;;;5.03;;
18125;SDS011;53956;52.442;13.284;2023-03-01T14:00:58;8.67;;;5.30;;
18125;SDS011;53956;52.442;13.284;2023-03-01T14:03:26;9.00;;;5.40;;
18125;SDS011;53956;52.442;13.284;2023-03-01T14:06:00;9.77;;;5.50;;
18125;SDS011;53956;52.442;13.284;2023-03-01T14:08:31;11.07;;;5.30;;
18125;SDS011;53956;52.442;13.284;2023-03-01T14:11:02;8.50;;;4.97;;
18125;SDS011;53956;52.442;13.284;2023-03-01T14:13:53;9.77;;;5.20;;
18125;SDS011;53956;52.442;13.284;2023-03-01T14:16:31;9.50;;;5.07;;
18125;SDS011;53956;52.442;13.284;2023-03-01T14:19:07;9.60;;;5.00;;
18125;SDS011;53956;52.442;13.284;2023-03-01T14:21:43;10.77;;;4.93;;
18125;SDS011;53956;52.442;13.284;2023-03-01T14:24:15;10.37;;;5.17;;
18125;SDS011;53956;52.442;13.284;2023-03-01T14:26:43;7.87;;;4.90;;
18125;SDS011;53956;52.442;13.284;2023-03-01T14:29:23;10.67;;;5.47;;
18125;SDS011;53956;52.442;13.284;2023-03-01T14:31:50;15.40;;;5.50;;
18125;SDS011;53956;52.442;13.284;2023-03-01T14:34:18;8.23;;;5.43;;
18125;SDS011;53956;52.442;13.284;2023-03-01T14:36:53;10.00;;;5.30;;
18125;SDS011;53956;52.442;13.284;2023-03-01T14:39:22;8.90;;;5.00;;
18125;SDS011;53956;52.442;13.284;2023-03-01T14:41:51;7.43;;;4.63;;
18125;SDS011;53956;52.442;13.284;2023-03-01T14:44:19;10.13;;;5.20;;